createdAt,value
2022-12-23T00:00:38.924Z,95.85
2022-12-23T00:03:06.568Z,96.28
2022-12-23T00:05:38.615Z,96.12
2022-12-23T00:08:06.254Z,96.28
2022-12-23T00:10:34.877Z,96.15
2022-12-23T00:13:20.113Z,96.29
2022-12-23T00:15:46.422Z,96.48
2022-12-23T00:18:14.215Z,96.03
2022-12-23T00:20:40.911Z,96.27
2022-12-23T00:23:07.548Z,96.26
2022-12-23T00:25:44.776Z,95.80
2022-12-23T00:28:20.399Z,95.53
2022-12-23T00:31:07.440Z,95.63
2022-12-23T00:33:44.944Z,95.76
2022-12-23T00:36:24.598Z,95.93
2022-12-23T00:39:09.868Z,95.71
2022-12-23T00:41:55.148Z,95.87
2022-12-23T00:44:21.969Z,95.77
2022-12-23T00:46:48.886Z,95.79
2022-12-23T00:49:35.068Z,96.47
2022-12-23T00:52:02.047Z,96.06
2022-12-23T00:54:28.539Z,96.03
2022-12-23T00:56:55.237Z,96.55
2022-12-23T00:59:21.940Z,95.98
2022-12-23T01:02:07.297Z,96.30
2022-12-23T01:04:52.894Z,96.12
2022-12-23T01:07:20.081Z,95.92
2022-12-23T01:09:46.641Z,96.49
2022-12-23T01:12:13.858Z,95.96
2022-12-23T01:14:40.783Z,96.08
2022-12-23T01:17:08.242Z,95.93
2022-12-23T01:19:36.039Z,95.34
2022-12-23T01:22:02.657Z,95.66
2022-12-23T01:24:31.066Z,95.46
2022-12-23T01:26:58.271Z,95.90
2022-12-23T01:29:25.295Z,96.13
2022-12-23T01:31:51.832Z,95.71
2022-12-23T01:34:18.509Z,96.41
2022-12-23T01:36:45.313Z,95.55
2022-12-23T01:39:11.878Z,95.79
2022-12-23T01:41:57.737Z,96.27
2022-12-23T01:44:57.171Z,95.91
2022-12-23T01:47:50.325Z,96.18
2022-12-23T01:50:22.323Z,95.88
2022-12-23T01:53:08.065Z,95.70
2022-12-23T01:55:59.756Z,96.56
2022-12-23T01:58:32.022Z,96.35
2022-12-23T02:01:17.821Z,96.06
2022-12-23T02:03:46.805Z,96.31
2022-12-23T02:06:40.391Z,95.90
2022-12-23T02:09:18.125Z,96.20
2022-12-23T02:12:13.143Z,95.51
2022-12-23T02:15:07.558Z,96.00
2022-12-23T02:18:05.608Z,96.53
2022-12-23T02:21:10.783Z,95.65
2022-12-23T02:23:59.746Z,95.71
2022-12-23T02:26:56.934Z,95.36
2022-12-23T02:29:32.579Z,95.79
2022-12-23T02:32:15.161Z,95.70
2022-12-23T02:34:54.335Z,96.04
2022-12-23T02:37:35.944Z,95.70
2022-12-23T02:40:18.401Z,95.61
2022-12-23T02:42:53.910Z,95.16
2022-12-23T02:45:28.794Z,95.55
2022-12-23T02:48:02.421Z,95.56
2022-12-23T02:50:32.726Z,96.10
2022-12-23T02:53:03.782Z,96.08
2022-12-23T02:55:35.933Z,96.58
2022-12-23T02:58:09.563Z,96.37
2022-12-23T03:00:38.565Z,96.00
2022-12-23T03:03:05.278Z,95.54
2022-12-23T03:05:39.384Z,95.54
2022-12-23T03:08:12.548Z,95.37
2022-12-23T03:11:05.883Z,95.59
2022-12-23T03:14:05.736Z,95.29
2022-12-23T03:17:10.853Z,95.39
2022-12-23T03:19:50.006Z,95.09
2022-12-23T03:22:35.533Z,95.68
2022-12-23T03:25:27.125Z,95.25
2022-12-23T03:27:56.797Z,95.54
2022-12-23T03:30:24.175Z,95.49
2022-12-23T03:32:59.642Z,95.95
2022-12-23T03:35:34.047Z,95.48
2022-12-23T03:38:03.309Z,95.32
2022-12-23T03:40:35.865Z,95.02
2022-12-23T03:43:11.436Z,94.58
2022-12-23T03:45:43.608Z,94.17
2022-12-23T03:48:21.865Z,94.20
2022-12-23T03:50:54.015Z,93.84
2022-12-23T03:53:27.848Z,93.32
2022-12-23T03:56:00.315Z,93.50
2022-12-23T03:58:35.534Z,94.20
2022-12-23T04:01:18.095Z,94.24
2022-12-23T04:04:02.077Z,94.43
2022-12-23T04:06:39.075Z,93.86
2022-12-23T04:09:07.277Z,94.22
2022-12-23T04:11:36.324Z,93.41
2022-12-23T04:14:03.135Z,93.52
2022-12-23T04:16:30.172Z,93.54
2022-12-23T04:18:56.801Z,93.74
2022-12-23T04:21:23.265Z,93.32
2022-12-23T04:23:49.774Z,93.96
2022-12-23T04:26:16.353Z,93.41
2022-12-23T04:28:43.121Z,93.60
2022-12-23T04:31:09.708Z,93.88
2022-12-23T04:33:36.077Z,94.02
2022-12-23T04:36:02.704Z,92.40
2022-12-23T04:38:29.344Z,90.43
2022-12-23T04:40:55.950Z,90.87
2022-12-23T04:43:22.987Z,90.30
2022-12-23T04:45:52.725Z,89.69
2022-12-23T04:48:19.483Z,91.66
2022-12-23T04:50:45.944Z,89.03
2022-12-23T04:53:12.995Z,90.75
2022-12-23T04:55:39.493Z,91.17
2022-12-23T04:58:06.201Z,91.51
2022-12-23T05:00:39.099Z,91.88
2022-12-23T05:03:06.893Z,90.88
2022-12-23T05:05:33.417Z,89.63
2022-12-23T05:08:04.869Z,91.11
2022-12-23T05:10:31.913Z,91.94
2022-12-23T05:12:58.403Z,91.05
2022-12-23T05:15:24.895Z,92.14
2022-12-23T05:17:51.641Z,90.56
2022-12-23T05:20:18.175Z,91.06
2022-12-23T05:22:45.020Z,91.45
2022-12-23T05:25:11.465Z,91.67
2022-12-23T05:27:38.472Z,92.50
2022-12-23T05:30:06.378Z,92.05
2022-12-23T05:32:33.830Z,91.91
2022-12-23T05:35:00.571Z,92.58
2022-12-23T05:37:27.044Z,91.89
2022-12-23T05:39:53.490Z,91.92
2022-12-23T05:42:20.301Z,91.24
2022-12-23T05:44:47.846Z,90.49
2022-12-23T05:47:14.550Z,90.99
2022-12-23T05:49:41.099Z,88.99
2022-12-23T05:52:07.975Z,89.42
2022-12-23T05:54:34.587Z,88.11
2022-12-23T05:57:01.418Z,88.78
2022-12-23T05:59:31.332Z,90.15
2022-12-23T06:01:58.782Z,89.60
2022-12-23T06:04:25.597Z,89.75
2022-12-23T06:06:52.288Z,90.67
2022-12-23T06:09:19.744Z,91.11
2022-12-23T06:11:47.157Z,91.37
2022-12-23T06:14:13.878Z,91.57
2022-12-23T06:16:40.723Z,91.65
2022-12-23T06:19:07.418Z,91.80
2022-12-23T06:21:33.885Z,91.28
2022-12-23T06:24:00.500Z,91.07
2022-12-23T06:26:27.310Z,90.56
2022-12-23T06:28:53.775Z,91.32
2022-12-23T06:31:20.276Z,91.62
2022-12-23T06:33:46.876Z,90.93
2022-12-23T06:36:13.336Z,91.48
2022-12-23T06:38:39.793Z,91.88
2022-12-23T06:41:07.632Z,91.94
2022-12-23T06:43:34.192Z,91.89
2022-12-23T06:46:00.748Z,92.15
2022-12-23T06:48:27.727Z,90.74
2022-12-23T06:50:54.406Z,91.83
2022-12-23T06:53:20.933Z,92.11
2022-12-23T06:55:47.476Z,92.07
2022-12-23T06:58:14.357Z,92.36
2022-12-23T07:00:40.917Z,92.12
2022-12-23T07:03:07.746Z,91.48
2022-12-23T07:05:37.334Z,92.38
2022-12-23T07:08:04.799Z,92.01
2022-12-23T07:10:31.648Z,92.43
2022-12-23T07:12:58.026Z,92.85
2022-12-23T07:15:24.391Z,93.32
2022-12-23T07:17:50.997Z,93.30
2022-12-23T07:20:17.802Z,93.96
2022-12-23T07:22:44.851Z,93.92
2022-12-23T07:25:11.635Z,94.26
2022-12-23T07:27:38.217Z,94.15
2022-12-23T07:30:05.199Z,94.32
2022-12-23T07:32:32.184Z,94.35
2022-12-23T07:34:58.768Z,94.67
2022-12-23T07:37:25.350Z,94.54
2022-12-23T07:39:51.870Z,94.25
2022-12-23T07:42:44.151Z,94.25
2022-12-23T07:45:05.539Z,94.33
2022-12-23T07:47:32.072Z,93.84
2022-12-23T07:49:58.554Z,94.51
2022-12-23T07:52:25.701Z,94.18
2022-12-23T07:54:52.337Z,94.57
2022-12-23T07:57:18.722Z,94.31
2022-12-23T07:59:45.408Z,94.71
2022-12-23T08:02:12.150Z,94.53
2022-12-23T08:04:44.229Z,94.56
2022-12-23T08:07:12.653Z,94.62
2022-12-23T08:09:39.469Z,94.97
2022-12-23T08:12:06.171Z,94.50
2022-12-23T08:14:32.740Z,94.54
2022-12-23T08:16:59.408Z,94.23
2022-12-23T08:19:25.930Z,94.69
2022-12-23T08:21:52.419Z,94.20
2022-12-23T08:24:19.000Z,94.07
2022-12-23T08:26:45.709Z,93.91
2022-12-23T08:29:12.236Z,94.12
2022-12-23T08:31:38.773Z,94.24
2022-12-23T08:34:05.205Z,94.41
2022-12-23T08:36:34.989Z,94.02
2022-12-23T08:39:05.616Z,93.16
2022-12-23T08:41:36.986Z,92.13
2022-12-23T08:44:03.669Z,91.92
2022-12-23T08:46:30.259Z,91.77
2022-12-23T08:48:57.129Z,91.98
2022-12-23T08:51:25.166Z,92.46
2022-12-23T08:53:59.865Z,93.04
2022-12-23T08:56:31.076Z,93.27
2022-12-23T08:58:57.959Z,93.63
2022-12-23T09:01:30.971Z,94.05
2022-12-23T09:03:58.401Z,93.78
2022-12-23T09:06:30.082Z,93.49
2022-12-23T09:08:58.191Z,94.11
2022-12-23T09:11:26.949Z,94.05
2022-12-23T09:13:53.818Z,93.85
2022-12-23T09:16:20.703Z,93.67
2022-12-23T09:18:47.164Z,93.89
2022-12-23T09:21:20.122Z,93.52
2022-12-23T09:23:48.548Z,93.05
2022-12-23T09:26:21.996Z,92.69
2022-12-23T09:28:48.709Z,91.83
2022-12-23T09:31:15.673Z,90.80
2022-12-23T09:33:43.091Z,89.48
2022-12-23T09:36:09.588Z,90.70
2022-12-23T09:38:36.543Z,91.65
2022-12-23T09:41:04.149Z,92.19
2022-12-23T09:43:45.645Z,92.38
2022-12-23T09:46:23.805Z,92.60
2022-12-23T09:49:00.008Z,92.49
2022-12-23T09:51:27.958Z,93.15
2022-12-23T09:54:20.631Z,93.27
2022-12-23T09:56:47.083Z,93.42
2022-12-23T09:59:19.760Z,93.63
2022-12-23T10:01:49.495Z,92.55
2022-12-23T10:04:39.736Z,92.93
2022-12-23T10:07:06.196Z,92.95
2022-12-23T10:09:37.450Z,93.78
2022-12-23T10:12:28.762Z,92.85
2022-12-23T10:15:02.679Z,92.84
2022-12-23T10:17:41.488Z,93.08
2022-12-23T10:20:18.297Z,92.47
2022-12-23T10:22:46.599Z,92.67
2022-12-23T10:25:37.238Z,92.94
2022-12-23T10:28:04.051Z,92.63
2022-12-23T10:30:57.416Z,92.22
2022-12-23T10:33:48.804Z,92.48
2022-12-23T10:36:34.119Z,91.64
2022-12-23T10:39:33.011Z,92.17
2022-12-23T10:42:28.179Z,92.50
2022-12-23T10:45:09.388Z,92.31
2022-12-23T10:48:06.085Z,92.33
2022-12-23T10:50:57.261Z,93.21
2022-12-23T10:53:33.178Z,93.21
2022-12-23T10:56:02.742Z,93.51
2022-12-23T10:58:30.345Z,93.30
2022-12-23T11:01:00.038Z,93.51
2022-12-23T11:03:33.781Z,93.94
2022-12-23T11:06:02.055Z,92.91
2022-12-23T11:08:31.046Z,92.92
2022-12-23T11:10:59.609Z,93.02
2022-12-23T11:13:34.736Z,93.25
2022-12-23T11:16:20.296Z,93.34
2022-12-23T11:19:02.225Z,93.13
2022-12-23T11:21:30.169Z,93.99
2022-12-23T11:24:15.782Z,94.06
2022-12-23T11:26:45.109Z,93.95
2022-12-23T11:29:31.420Z,93.73
2022-12-23T11:31:58.426Z,94.19
2022-12-23T11:34:27.270Z,94.50
2022-12-23T11:37:01.765Z,94.46
2022-12-23T11:39:36.629Z,94.36
2022-12-23T11:42:17.381Z,94.29
2022-12-23T11:44:51.596Z,94.39
2022-12-23T11:47:39.320Z,93.96
2022-12-23T11:50:33.622Z,94.60
2022-12-23T11:53:11.265Z,94.33
2022-12-23T11:55:45.953Z,93.96
2022-12-23T11:58:21.340Z,93.69
2022-12-23T12:01:00.769Z,94.21
2022-12-23T12:03:33.818Z,94.62
2022-12-23T12:06:03.639Z,94.33
2022-12-23T12:08:36.901Z,93.69
2022-12-23T12:11:08.094Z,93.95
2022-12-23T12:13:41.847Z,94.14
2022-12-23T12:16:36.339Z,94.07
2022-12-23T12:19:17.220Z,93.82
2022-12-23T12:21:45.870Z,93.70
2022-12-23T12:24:19.165Z,93.68
2022-12-23T12:26:51.270Z,93.42
2022-12-23T12:29:35.890Z,92.79
2022-12-23T12:32:04.440Z,93.73
2022-12-23T12:34:52.733Z,93.24
2022-12-23T12:37:33.961Z,93.53
2022-12-23T12:40:12.445Z,93.81
2022-12-23T12:42:44.686Z,93.77
2022-12-23T12:45:22.235Z,93.74
2022-12-23T12:48:18.298Z,94.24
2022-12-23T12:50:59.182Z,94.45
2022-12-23T12:53:28.107Z,94.33
2022-12-23T12:56:10.436Z,94.64
2022-12-23T12:58:38.747Z,94.56
2022-12-23T13:01:26.109Z,94.37
2022-12-23T13:04:15.053Z,94.22
2022-12-23T13:07:11.283Z,94.90
2022-12-23T13:10:16.361Z,95.06
2022-12-23T13:12:48.238Z,94.85
2022-12-23T13:15:26.453Z,95.08
2022-12-23T13:18:39.982Z,94.89
2022-12-23T13:21:14.458Z,94.68
2022-12-23T13:23:50.951Z,94.88
2022-12-23T13:26:46.973Z,94.40
2022-12-23T13:29:57.609Z,94.72
2022-12-23T13:33:06.671Z,94.80
2022-12-23T13:36:05.793Z,94.52
2022-12-23T13:38:36.380Z,94.66
2022-12-23T13:41:34.064Z,94.60
2022-12-23T13:44:05.187Z,94.19
2022-12-23T13:47:09.928Z,94.34
2022-12-23T13:50:13.567Z,94.46
2022-12-23T13:53:11.529Z,94.37
2022-12-23T13:55:57.377Z,94.87
2022-12-23T13:58:27.123Z,94.88
2022-12-23T14:01:17.693Z,95.19
2022-12-23T14:03:44.909Z,95.23
2022-12-23T14:06:21.300Z,94.83
2022-12-23T14:08:48.592Z,95.04
2022-12-23T14:11:25.892Z,95.09
2022-12-23T14:13:58.260Z,95.21
2022-12-23T14:16:42.884Z,94.94
2022-12-23T14:19:18.581Z,95.27
2022-12-23T14:22:24.580Z,94.90
2022-12-23T14:25:16.272Z,94.89
2022-12-23T14:28:04.630Z,94.87
2022-12-23T14:30:35.739Z,95.14
2022-12-23T14:33:06.400Z,94.96
2022-12-23T14:35:40.082Z,94.90
2022-12-23T14:38:22.547Z,94.87
2022-12-23T14:40:51.070Z,94.90
2022-12-23T14:43:42.644Z,94.86
2022-12-23T14:46:34.295Z,94.76
2022-12-23T14:49:29.773Z,94.26
2022-12-23T14:51:50.773Z,94.72
2022-12-23T14:54:18.282Z,94.89
2022-12-23T14:57:00.440Z,95.32
2022-12-23T14:59:56.728Z,95.60
2022-12-23T15:02:35.097Z,95.74
2022-12-23T15:05:02.727Z,96.02
2022-12-23T15:07:53.175Z,95.94
2022-12-23T15:10:25.442Z,95.95
2022-12-23T15:12:59.386Z,95.83
2022-12-23T15:15:29.479Z,95.98
2022-12-23T15:18:05.028Z,96.26
2022-12-23T15:20:33.093Z,96.04
2022-12-23T15:23:01.837Z,96.40
2022-12-23T15:25:39.037Z,96.35
2022-12-23T15:28:05.733Z,96.22
2022-12-23T15:30:35.252Z,96.54
2022-12-23T15:33:16.071Z,96.26
2022-12-23T15:35:53.045Z,96.56
2022-12-23T15:38:20.322Z,96.45
2022-12-23T15:40:58.568Z,96.21
2022-12-23T15:43:25.212Z,96.31
2022-12-23T15:45:52.778Z,96.69
2022-12-23T15:48:24.266Z,96.65
2022-12-23T15:51:11.861Z,96.54
2022-12-23T15:53:41.852Z,96.89
2022-12-23T15:56:22.887Z,96.84
2022-12-23T15:58:52.896Z,96.56
2022-12-23T16:01:22.040Z,96.93
2022-12-23T16:03:56.874Z,96.71
2022-12-23T16:06:35.657Z,96.85
2022-12-23T16:09:22.926Z,96.80
2022-12-23T16:12:03.963Z,96.84
2022-12-23T16:14:30.350Z,97.14
2022-12-23T16:17:22.692Z,96.70
2022-12-23T16:19:53.723Z,97.08
2022-12-23T16:22:20.235Z,97.08
2022-12-23T16:24:57.026Z,97.17
2022-12-23T16:27:40.416Z,97.03
2022-12-23T16:30:21.444Z,97.01
2022-12-23T16:32:57.335Z,96.78
2022-12-23T16:35:29.014Z,96.83
2022-12-23T16:38:16.951Z,96.93
2022-12-23T16:40:46.745Z,96.81
2022-12-23T16:43:13.689Z,96.92
2022-12-23T16:45:41.130Z,96.76
2022-12-23T16:48:17.024Z,96.99
2022-12-23T16:50:45.401Z,97.00
2022-12-23T16:53:13.291Z,96.95
2022-12-23T16:55:44.411Z,96.91
2022-12-23T16:58:15.071Z,97.13
2022-12-23T17:00:42.570Z,96.94
2022-12-23T17:03:15.685Z,95.77
2022-12-23T17:05:42.147Z,93.74
2022-12-23T17:08:09.567Z,92.57
2022-12-23T17:10:37.443Z,87.25
2022-12-23T17:13:05.274Z,88.50
2022-12-23T17:15:32.285Z,88.54
2022-12-23T17:17:59.942Z,85.39
2022-12-23T17:20:26.728Z,82.77
2022-12-23T17:22:57.490Z,80.98
2022-12-23T17:25:26.668Z,80.61
2022-12-23T17:27:55.388Z,79.98
2022-12-23T17:30:24.690Z,79.60
2022-12-23T17:32:56.424Z,78.90
2022-12-23T17:35:24.173Z,79.86
2022-12-23T17:37:52.412Z,78.07
2022-12-23T17:40:19.562Z,79.47
2022-12-23T17:42:47.438Z,80.89
2022-12-23T17:45:22.956Z,80.06
2022-12-23T17:47:49.455Z,80.93
2022-12-23T17:50:16.036Z,80.31
2022-12-23T17:52:42.970Z,79.53
2022-12-23T17:55:21.018Z,79.86
2022-12-23T17:57:48.063Z,81.42
2022-12-23T18:00:25.146Z,80.50
2022-12-23T18:02:56.995Z,80.89
2022-12-23T18:05:26.644Z,81.64
2022-12-23T18:07:54.818Z,81.46
2022-12-23T18:10:25.259Z,80.50
2022-12-23T18:12:56.922Z,79.53
2022-12-23T18:15:32.712Z,80.13
2022-12-23T18:17:59.411Z,79.64
2022-12-23T18:20:25.986Z,79.34
2022-12-23T18:22:54.135Z,77.20
2022-12-23T18:25:24.095Z,78.56
2022-12-23T18:27:52.029Z,75.59
2022-12-23T18:30:19.827Z,75.99
2022-12-23T18:32:47.430Z,74.73
2022-12-23T18:35:24.791Z,76.82
2022-12-23T18:37:51.642Z,74.81
2022-12-23T18:40:18.333Z,77.33
2022-12-23T18:42:45.194Z,73.67
2022-12-23T18:45:24.964Z,74.71
2022-12-23T18:47:51.536Z,75.74
2022-12-23T18:50:18.353Z,75.29
2022-12-23T18:52:46.454Z,76.03
2022-12-23T18:55:13.484Z,77.44
2022-12-23T18:57:40.702Z,77.04
2022-12-23T19:00:13.446Z,75.56
2022-12-23T19:02:40.380Z,79.88
2022-12-23T19:05:07.460Z,80.72
2022-12-23T19:07:34.622Z,82.30
2022-12-23T19:10:01.131Z,82.13
2022-12-23T19:12:27.847Z,82.39
2022-12-23T19:14:54.369Z,81.74
2022-12-23T19:17:20.759Z,80.90
2022-12-23T19:19:47.264Z,81.49
2022-12-23T19:22:13.740Z,81.69
2022-12-23T19:24:52.052Z,83.90
2022-12-23T19:27:27.117Z,83.37
2022-12-23T19:29:53.655Z,85.03
2022-12-23T19:32:20.058Z,85.78
2022-12-23T19:34:46.839Z,84.46
2022-12-23T19:37:13.542Z,84.58
2022-12-23T19:39:41.267Z,80.78
2022-12-23T19:42:08.451Z,79.99
2022-12-23T19:44:35.364Z,82.73
2022-12-23T19:47:03.750Z,82.73
2022-12-23T19:49:30.381Z,84.40
2022-12-23T19:51:57.151Z,84.37
2022-12-23T19:54:23.831Z,86.11
2022-12-23T19:56:51.430Z,86.37
2022-12-23T19:59:18.833Z,83.07
2022-12-23T20:01:45.610Z,82.57
2022-12-23T20:04:12.536Z,84.13
2022-12-23T20:06:40.982Z,83.05
2022-12-23T20:09:11.045Z,84.94
2022-12-23T20:11:43.489Z,85.91
2022-12-23T20:14:11.034Z,84.73
2022-12-23T20:16:38.741Z,80.55
2022-12-23T20:19:06.068Z,81.63
2022-12-23T20:21:33.973Z,82.27
2022-12-23T20:24:00.665Z,83.70
2022-12-23T20:26:28.951Z,84.58
2022-12-23T20:28:57.265Z,86.00
2022-12-23T20:31:26.692Z,86.20
2022-12-23T20:33:54.001Z,86.84
2022-12-23T20:36:24.176Z,87.54
2022-12-23T20:38:51.930Z,87.82
2022-12-23T20:41:21.555Z,89.09
2022-12-23T20:44:02.781Z,89.40
2022-12-23T20:46:35.082Z,90.16
2022-12-23T20:49:02.246Z,89.82
2022-12-23T20:51:28.731Z,89.72
2022-12-23T20:53:59.713Z,88.47
2022-12-23T20:56:27.660Z,89.16
2022-12-23T20:58:54.981Z,88.96
2022-12-23T21:01:31.202Z,89.30
2022-12-23T21:03:59.727Z,89.73
2022-12-23T21:06:28.990Z,88.58
2022-12-23T21:08:58.117Z,88.18
2022-12-23T21:11:27.166Z,84.18
2022-12-23T21:13:53.881Z,81.04
2022-12-23T21:16:20.609Z,82.22
2022-12-23T21:18:53.179Z,83.27
2022-12-23T21:21:23.462Z,83.71
2022-12-23T21:23:50.228Z,79.06
2022-12-23T21:26:22.967Z,77.96
2022-12-23T21:28:50.669Z,77.58
2022-12-23T21:31:19.738Z,77.40
2022-12-23T21:33:48.508Z,77.12
2022-12-23T21:36:20.297Z,76.94
2022-12-23T21:38:48.468Z,77.33
2022-12-23T21:41:17.534Z,77.00
2022-12-23T21:43:44.214Z,72.49
2022-12-23T21:46:13.823Z,76.27
2022-12-23T21:48:41.345Z,75.00
2022-12-23T21:51:13.141Z,75.42
2022-12-23T21:53:40.961Z,74.94
2022-12-23T21:56:10.993Z,76.35
2022-12-23T21:58:37.532Z,75.52
2022-12-23T22:01:09.390Z,73.41
2022-12-23T22:03:36.690Z,73.50
2022-12-23T22:06:08.435Z,74.65
2022-12-23T22:08:37.032Z,74.17
2022-12-23T22:11:08.761Z,75.01
2022-12-23T22:13:36.337Z,75.63
2022-12-23T22:16:03.771Z,76.12
2022-12-23T22:18:31.567Z,75.32
2022-12-23T22:20:57.942Z,75.94
2022-12-23T22:23:24.437Z,74.50
2022-12-23T22:25:54.967Z,74.76
2022-12-23T22:28:22.058Z,72.68
2022-12-23T22:30:48.935Z,74.33
2022-12-23T22:33:15.369Z,73.97
2022-12-23T22:35:42.598Z,73.55
2022-12-23T22:38:09.428Z,74.25
2022-12-23T22:40:36.042Z,75.69
2022-12-23T22:43:03.147Z,75.18
2022-12-23T22:45:29.641Z,72.48
2022-12-23T22:47:57.460Z,74.36
2022-12-23T22:50:23.897Z,72.96
2022-12-23T22:52:50.699Z,73.71
2022-12-23T22:55:17.210Z,74.05
2022-12-23T22:57:43.792Z,72.01
2022-12-23T23:00:12.491Z,73.42
2022-12-23T23:02:39.788Z,74.85
2022-12-23T23:05:12.463Z,73.04
2022-12-23T23:07:39.927Z,72.24
2022-12-23T23:10:08.370Z,71.98
2022-12-23T23:12:35.174Z,71.77
2022-12-23T23:15:01.606Z,72.12
2022-12-23T23:17:28.881Z,72.83
2022-12-23T23:19:55.707Z,72.40
2022-12-23T23:22:23.652Z,73.42
2022-12-23T23:24:50.970Z,73.54
2022-12-23T23:27:17.552Z,72.87
2022-12-23T23:29:44.478Z,72.95
2022-12-23T23:32:11.509Z,73.47
2022-12-23T23:34:38.130Z,75.01
2022-12-23T23:37:05.100Z,73.35
2022-12-23T23:39:31.992Z,73.24
2022-12-23T23:41:58.899Z,73.79
2022-12-23T23:44:25.332Z,73.12
2022-12-23T23:46:51.946Z,74.64
2022-12-23T23:49:18.447Z,74.08
2022-12-23T23:51:45.032Z,72.14
2022-12-23T23:54:11.878Z,73.10
2022-12-23T23:56:39.665Z,73.50
2022-12-23T23:59:07.079Z,74.21
